sensor_id;sensor_type;location;lat;lon;timestamp;temperature;humidity
4826;DHT22;2427;50.934;6.776;2023-03-14T00:00:21;11.00;99.90
4826;DHT22;2427;50.934;6.776;2023-03-14T00:02:52;11.00;99.90
4826;DHT22;2427;50.934;6.776;2023-03-14T00:05:17;10.90;99.90
4826;DHT22;2427;50.934;6.776;2023-03-14T00:07:43;10.80;99.90
4826;DHT22;2427;50.934;6.776;2023-03-14T00:10:12;10.80;99.90
4826;DHT22;2427;50.934;6.776;2023-03-14T00:12:39;10.70;99.90
4826;DHT22;2427;50.934;6.776;2023-03-14T00:15:05;10.70;99.90
4826;DHT22;2427;50.934;6.776;2023-03-14T00:17:32;10.70;99.90
4826;DHT22;2427;50.934;6.776;2023-03-14T00:19:58;10.70;99.90
4826;DHT22;2427;50.934;6.776;2023-03-14T00:22:30;10.80;99.90
4826;DHT22;2427;50.934;6.776;2023-03-14T00:24:56;10.90;99.90
4826;DHT22;2427;50.934;6.776;2023-03-14T00:27:21;11.00;99.90
4826;DHT22;2427;50.934;6.776;2023-03-14T00:29:47;11.00;99.90
4826;DHT22;2427;50.934;6.776;2023-03-14T00:32:12;11.10;99.90
4826;DHT22;2427;50.934;6.776;2023-03-14T00:34:38;11.10;99.90
4826;DHT22;2427;50.934;6.776;2023-03-14T00:37:03;11.20;99.90
4826;DHT22;2427;50.934;6.776;2023-03-14T00:39:29;11.20;99.90
4826;DHT22;2427;50.934;6.776;2023-03-14T00:41:54;11.30;99.90
4826;DHT22;2427;50.934;6.776;2023-03-14T00:44:20;11.40;99.90
4826;DHT22;2427;50.934;6.776;2023-03-14T00:46:45;11.40;99.90
4826;DHT22;2427;50.934;6.776;2023-03-14T00:49:11;11.40;99.90
4826;DHT22;2427;50.934;6.776;2023-03-14T00:51:37;11.40;99.90
4826;DHT22;2427;50.934;6.776;2023-03-14T00:54:02;11.40;99.90
4826;DHT22;2427;50.934;6.776;2023-03-14T00:56:28;11.30;99.90
4826;DHT22;2427;50.934;6.776;2023-03-14T00:58:56;11.20;99.90
4826;DHT22;2427;50.934;6.776;2023-03-14T01:01:23;11.00;1.00
4826;DHT22;2427;50.934;6.776;2023-03-14T01:03:53;10.90;1.00
4826;DHT22;2427;50.934;6.776;2023-03-14T01:06:22;10.60;94.60
4826;DHT22;2427;50.934;6.776;2023-03-14T01:08:48;10.30;1.00
4826;DHT22;2427;50.934;6.776;2023-03-14T01:11:34;10.00;99.90
4826;DHT22;2427;50.934;6.776;2023-03-14T01:14:01;9.70;99.90
4826;DHT22;2427;50.934;6.776;2023-03-14T01:16:29;9.50;99.90
4826;DHT22;2427;50.934;6.776;2023-03-14T01:18:54;9.30;1.00
4826;DHT22;2427;50.934;6.776;2023-03-14T01:21:23;9.20;99.90
4826;DHT22;2427;50.934;6.776;2023-03-14T01:23:50;9.10;99.90
4826;DHT22;2427;50.934;6.776;2023-03-14T01:26:18;9.00;1.00
4826;DHT22;2427;50.934;6.776;2023-03-14T01:28:45;9.00;1.00
4826;DHT22;2427;50.934;6.776;2023-03-14T01:31:11;9.00;99.90
4826;DHT22;2427;50.934;6.776;2023-03-14T01:33:38;8.90;99.90
4826;DHT22;2427;50.934;6.776;2023-03-14T01:36:04;8.90;99.90
4826;DHT22;2427;50.934;6.776;2023-03-14T01:38:34;8.90;99.90
4826;DHT22;2427;50.934;6.776;2023-03-14T01:41:00;9.00;1.00
4826;DHT22;2427;50.934;6.776;2023-03-14T01:43:26;8.90;1.00
4826;DHT22;2427;50.934;6.776;2023-03-14T01:48:35;8.90;1.00
4826;DHT22;2427;50.934;6.776;2023-03-14T01:51:15;8.90;1.00
4826;DHT22;2427;50.934;6.776;2023-03-14T01:53:42;8.90;1.00
4826;DHT22;2427;50.934;6.776;2023-03-14T01:56:11;8.90;1.00
4826;DHT22;2427;50.934;6.776;2023-03-14T01:58:39;8.80;1.00
4826;DHT22;2427;50.934;6.776;2023-03-14T02:11:29;8.70;1.00
4826;DHT22;2427;50.934;6.776;2023-03-14T02:13:57;8.70;1.00
4826;DHT22;2427;50.934;6.776;2023-03-14T02:16:24;8.70;1.00
4826;DHT22;2427;50.934;6.776;2023-03-14T02:18:49;8.70;1.00
4826;DHT22;2427;50.934;6.776;2023-03-14T02:21:35;8.70;1.00
4826;DHT22;2427;50.934;6.776;2023-03-14T02:24:13;8.70;1.00
4826;DHT22;2427;50.934;6.776;2023-03-14T02:27:10;8.70;1.00
4826;DHT22;2427;50.934;6.776;2023-03-14T02:29:41;8.70;1.00
4826;DHT22;2427;50.934;6.776;2023-03-14T02:32:10;8.70;1.00
4826;DHT22;2427;50.934;6.776;2023-03-14T02:34:36;8.70;99.90
4826;DHT22;2427;50.934;6.776;2023-03-14T02:37:02;8.70;99.90
4826;DHT22;2427;50.934;6.776;2023-03-14T02:39:40;8.70;99.90
4826;DHT22;2427;50.934;6.776;2023-03-14T02:42:07;8.70;99.90
4826;DHT22;2427;50.934;6.776;2023-03-14T02:44:33;8.60;99.90
4826;DHT22;2427;50.934;6.776;2023-03-14T02:47:01;8.60;99.90
4826;DHT22;2427;50.934;6.776;2023-03-14T02:49:29;8.60;99.90
4826;DHT22;2427;50.934;6.776;2023-03-14T02:51:55;8.60;99.90
4826;DHT22;2427;50.934;6.776;2023-03-14T02:54:21;8.60;99.90
4826;DHT22;2427;50.934;6.776;2023-03-14T02:56:46;8.60;99.90
4826;DHT22;2427;50.934;6.776;2023-03-14T02:59:12;8.70;99.90
4826;DHT22;2427;50.934;6.776;2023-03-14T03:01:38;8.70;1.00
4826;DHT22;2427;50.934;6.776;2023-03-14T03:04:03;8.70;1.00
4826;DHT22;2427;50.934;6.776;2023-03-14T03:06:29;8.80;1.00
4826;DHT22;2427;50.934;6.776;2023-03-14T03:08:55;8.80;1.00
4826;DHT22;2427;50.934;6.776;2023-03-14T03:11:20;8.80;1.00
4826;DHT22;2427;50.934;6.776;2023-03-14T03:13:48;8.80;1.00
4826;DHT22;2427;50.934;6.776;2023-03-14T03:16:14;8.90;1.00
4826;DHT22;2427;50.934;6.776;2023-03-14T03:18:40;8.90;1.00
4826;DHT22;2427;50.934;6.776;2023-03-14T03:21:06;8.90;1.00
4826;DHT22;2427;50.934;6.776;2023-03-14T03:23:34;8.90;99.90
4826;DHT22;2427;50.934;6.776;2023-03-14T03:25:59;9.00;99.90
4826;DHT22;2427;50.934;6.776;2023-03-14T03:28:25;9.00;99.90
4826;DHT22;2427;50.934;6.776;2023-03-14T03:30:51;9.00;74.30
4826;DHT22;2427;50.934;6.776;2023-03-14T03:33:17;9.00;1.00
4826;DHT22;2427;50.934;6.776;2023-03-14T03:35:45;9.00;1.00
4826;DHT22;2427;50.934;6.776;2023-03-14T03:38:11;9.10;99.90
4826;DHT22;2427;50.934;6.776;2023-03-14T03:40:37;9.10;99.90
4826;DHT22;2427;50.934;6.776;2023-03-14T03:43:02;9.20;99.90
4826;DHT22;2427;50.934;6.776;2023-03-14T03:45:29;9.20;1.00
4826;DHT22;2427;50.934;6.776;2023-03-14T03:47:55;9.30;1.00
4826;DHT22;2427;50.934;6.776;2023-03-14T03:50:20;9.40;1.00
4826;DHT22;2427;50.934;6.776;2023-03-14T03:52:46;9.40;99.90
4826;DHT22;2427;50.934;6.776;2023-03-14T03:55:11;9.40;99.90
4826;DHT22;2427;50.934;6.776;2023-03-14T03:57:37;9.40;99.90
4826;DHT22;2427;50.934;6.776;2023-03-14T04:00:03;9.50;19.80
4826;DHT22;2427;50.934;6.776;2023-03-14T04:02:30;9.50;1.00
4826;DHT22;2427;50.934;6.776;2023-03-14T04:04:56;9.60;1.00
4826;DHT22;2427;50.934;6.776;2023-03-14T04:07:21;9.60;21.60
4826;DHT22;2427;50.934;6.776;2023-03-14T04:09:47;9.60;99.90
4826;DHT22;2427;50.934;6.776;2023-03-14T04:12:12;9.50;1.00
4826;DHT22;2427;50.934;6.776;2023-03-14T04:14:38;9.40;99.90
4826;DHT22;2427;50.934;6.776;2023-03-14T04:17:06;9.30;99.90
4826;DHT22;2427;50.934;6.776;2023-03-14T04:19:32;9.20;1.00
4826;DHT22;2427;50.934;6.776;2023-03-14T04:21:58;9.20;1.00
4826;DHT22;2427;50.934;6.776;2023-03-14T04:24:23;9.20;1.00
4826;DHT22;2427;50.934;6.776;2023-03-14T04:26:49;9.10;59.00
4826;DHT22;2427;50.934;6.776;2023-03-14T04:29:14;9.00;99.90
4826;DHT22;2427;50.934;6.776;2023-03-14T04:31:40;9.10;99.90
4826;DHT22;2427;50.934;6.776;2023-03-14T04:34:05;9.00;99.90
4826;DHT22;2427;50.934;6.776;2023-03-14T04:36:31;9.00;99.90
4826;DHT22;2427;50.934;6.776;2023-03-14T04:38:57;8.90;99.90
4826;DHT22;2427;50.934;6.776;2023-03-14T04:41:22;8.90;1.00
4826;DHT22;2427;50.934;6.776;2023-03-14T04:43:48;9.00;1.00
4826;DHT22;2427;50.934;6.776;2023-03-14T04:46:14;9.00;1.00
4826;DHT22;2427;50.934;6.776;2023-03-14T04:48:39;9.00;1.00
4826;DHT22;2427;50.934;6.776;2023-03-14T04:51:05;8.90;1.00
4826;DHT22;2427;50.934;6.776;2023-03-14T04:53:31;8.90;1.00
4826;DHT22;2427;50.934;6.776;2023-03-14T04:55:56;8.90;1.00
4826;DHT22;2427;50.934;6.776;2023-03-14T04:58:23;8.90;1.00
4826;DHT22;2427;50.934;6.776;2023-03-14T05:00:49;8.90;45.90
4826;DHT22;2427;50.934;6.776;2023-03-14T05:03:15;8.90;99.90
4826;DHT22;2427;50.934;6.776;2023-03-14T05:05:41;8.90;90.80
4826;DHT22;2427;50.934;6.776;2023-03-14T05:08:07;8.90;99.90
4826;DHT22;2427;50.934;6.776;2023-03-14T05:10:32;8.90;3.30
4826;DHT22;2427;50.934;6.776;2023-03-14T05:12:58;8.90;43.40
4826;DHT22;2427;50.934;6.776;2023-03-14T05:15:24;8.90;1.00
4826;DHT22;2427;50.934;6.776;2023-03-14T05:17:49;8.90;1.00
4826;DHT22;2427;50.934;6.776;2023-03-14T05:20:15;9.00;1.00
4826;DHT22;2427;50.934;6.776;2023-03-14T05:22:41;9.00;1.00
4826;DHT22;2427;50.934;6.776;2023-03-14T05:25:07;9.00;1.00
4826;DHT22;2427;50.934;6.776;2023-03-14T05:27:33;9.10;99.90
4826;DHT22;2427;50.934;6.776;2023-03-14T05:29:59;9.10;1.00
4826;DHT22;2427;50.934;6.776;2023-03-14T05:32:25;9.00;1.00
4826;DHT22;2427;50.934;6.776;2023-03-14T05:34:51;9.10;1.00
4826;DHT22;2427;50.934;6.776;2023-03-14T05:37:16;9.10;99.90
4826;DHT22;2427;50.934;6.776;2023-03-14T05:39:42;9.10;99.90
4826;DHT22;2427;50.934;6.776;2023-03-14T05:42:07;9.10;1.00
4826;DHT22;2427;50.934;6.776;2023-03-14T05:44:33;9.20;1.00
4826;DHT22;2427;50.934;6.776;2023-03-14T05:46:58;9.20;99.90
4826;DHT22;2427;50.934;6.776;2023-03-14T05:49:24;9.30;99.90
4826;DHT22;2427;50.934;6.776;2023-03-14T05:51:50;9.30;37.40
4826;DHT22;2427;50.934;6.776;2023-03-14T05:54:16;9.30;1.00
4826;DHT22;2427;50.934;6.776;2023-03-14T05:56:41;9.40;1.00
4826;DHT22;2427;50.934;6.776;2023-03-14T05:59:07;9.40;3.70
4826;DHT22;2427;50.934;6.776;2023-03-14T06:01:34;9.30;99.90
4826;DHT22;2427;50.934;6.776;2023-03-14T06:04:00;9.30;1.00
4826;DHT22;2427;50.934;6.776;2023-03-14T06:06:25;9.20;99.90
4826;DHT22;2427;50.934;6.776;2023-03-14T06:08:51;9.10;1.00
4826;DHT22;2427;50.934;6.776;2023-03-14T06:11:16;9.10;1.00
4826;DHT22;2427;50.934;6.776;2023-03-14T06:13:42;9.10;1.00
4826;DHT22;2427;50.934;6.776;2023-03-14T06:16:08;9.00;1.00
4826;DHT22;2427;50.934;6.776;2023-03-14T06:18:33;9.00;1.00
4826;DHT22;2427;50.934;6.776;2023-03-14T06:20:59;9.00;1.00
4826;DHT22;2427;50.934;6.776;2023-03-14T06:23:25;8.90;99.90
4826;DHT22;2427;50.934;6.776;2023-03-14T06:25:51;8.90;99.90
4826;DHT22;2427;50.934;6.776;2023-03-14T06:28:16;9.00;99.90
4826;DHT22;2427;50.934;6.776;2023-03-14T06:30:42;9.00;1.00
4826;DHT22;2427;50.934;6.776;2023-03-14T06:33:07;9.00;1.00
4826;DHT22;2427;50.934;6.776;2023-03-14T06:35:33;9.10;1.00
4826;DHT22;2427;50.934;6.776;2023-03-14T06:37:59;9.20;99.90
4826;DHT22;2427;50.934;6.776;2023-03-14T06:40:24;9.20;99.90
4826;DHT22;2427;50.934;6.776;2023-03-14T06:42:50;9.30;99.90
4826;DHT22;2427;50.934;6.776;2023-03-14T06:45:16;9.30;1.00
4826;DHT22;2427;50.934;6.776;2023-03-14T06:47:41;9.40;1.00
4826;DHT22;2427;50.934;6.776;2023-03-14T06:50:08;9.50;99.90
4826;DHT22;2427;50.934;6.776;2023-03-14T06:52:35;9.50;99.90
4826;DHT22;2427;50.934;6.776;2023-03-14T06:55:00;9.50;90.90
4826;DHT22;2427;50.934;6.776;2023-03-14T06:57:26;9.50;1.00
4826;DHT22;2427;50.934;6.776;2023-03-14T06:59:52;9.50;1.00
4826;DHT22;2427;50.934;6.776;2023-03-14T07:02:17;9.60;1.00
4826;DHT22;2427;50.934;6.776;2023-03-14T07:04:43;9.60;99.90
4826;DHT22;2427;50.934;6.776;2023-03-14T07:07:08;9.60;1.00
4826;DHT22;2427;50.934;6.776;2023-03-14T07:09:34;9.60;1.00
4826;DHT22;2427;50.934;6.776;2023-03-14T07:12:00;9.60;1.00
4826;DHT22;2427;50.934;6.776;2023-03-14T07:14:26;9.70;99.90
4826;DHT22;2427;50.934;6.776;2023-03-14T07:16:52;9.70;99.90
4826;DHT22;2427;50.934;6.776;2023-03-14T07:19:17;9.80;99.90
4826;DHT22;2427;50.934;6.776;2023-03-14T07:21:43;9.80;99.90
4826;DHT22;2427;50.934;6.776;2023-03-14T07:24:08;9.90;99.90
4826;DHT22;2427;50.934;6.776;2023-03-14T07:26:34;9.90;18.10
4826;DHT22;2427;50.934;6.776;2023-03-14T07:29:00;10.00;32.70
4826;DHT22;2427;50.934;6.776;2023-03-14T07:31:28;10.00;1.00
4826;DHT22;2427;50.934;6.776;2023-03-14T07:33:54;10.10;1.00
4826;DHT22;2427;50.934;6.776;2023-03-14T07:36:19;10.20;1.00
4826;DHT22;2427;50.934;6.776;2023-03-14T07:38:45;10.20;1.00
4826;DHT22;2427;50.934;6.776;2023-03-14T07:41:10;10.20;1.00
4826;DHT22;2427;50.934;6.776;2023-03-14T07:43:36;10.30;1.00
4826;DHT22;2427;50.934;6.776;2023-03-14T07:46:02;10.30;1.00
4826;DHT22;2427;50.934;6.776;2023-03-14T07:48:27;10.40;1.00
4826;DHT22;2427;50.934;6.776;2023-03-14T07:50:54;10.40;1.00
4826;DHT22;2427;50.934;6.776;2023-03-14T07:53:20;10.50;1.00
4826;DHT22;2427;50.934;6.776;2023-03-14T07:55:46;10.50;1.00
4826;DHT22;2427;50.934;6.776;2023-03-14T07:58:13;10.50;99.90
4826;DHT22;2427;50.934;6.776;2023-03-14T08:00:38;10.60;99.90
4826;DHT22;2427;50.934;6.776;2023-03-14T08:03:04;10.60;99.90
4826;DHT22;2427;50.934;6.776;2023-03-14T08:05:30;10.70;31.10
4826;DHT22;2427;50.934;6.776;2023-03-14T08:07:55;10.70;5.10
4826;DHT22;2427;50.934;6.776;2023-03-14T08:10:21;10.80;1.00
4826;DHT22;2427;50.934;6.776;2023-03-14T08:13:00;10.80;1.00
4826;DHT22;2427;50.934;6.776;2023-03-14T08:15:27;10.90;1.00
4826;DHT22;2427;50.934;6.776;2023-03-14T08:17:53;10.90;99.90
4826;DHT22;2427;50.934;6.776;2023-03-14T08:20:20;11.00;99.90
4826;DHT22;2427;50.934;6.776;2023-03-14T08:22:46;11.10;99.90
4826;DHT22;2427;50.934;6.776;2023-03-14T08:25:12;11.10;99.90
4826;DHT22;2427;50.934;6.776;2023-03-14T08:27:38;11.10;99.90
4826;DHT22;2427;50.934;6.776;2023-03-14T08:30:05;11.20;99.90
4826;DHT22;2427;50.934;6.776;2023-03-14T08:32:31;11.20;36.50
4826;DHT22;2427;50.934;6.776;2023-03-14T08:34:57;11.30;1.00
4826;DHT22;2427;50.934;6.776;2023-03-14T08:37:23;11.40;1.00
4826;DHT22;2427;50.934;6.776;2023-03-14T08:39:50;11.50;1.00
4826;DHT22;2427;50.934;6.776;2023-03-14T08:42:17;11.40;1.00
4826;DHT22;2427;50.934;6.776;2023-03-14T08:44:42;11.40;1.00
4826;DHT22;2427;50.934;6.776;2023-03-14T08:47:08;11.50;1.00
4826;DHT22;2427;50.934;6.776;2023-03-14T08:49:33;11.40;1.00
4826;DHT22;2427;50.934;6.776;2023-03-14T08:52:00;11.20;99.90
4826;DHT22;2427;50.934;6.776;2023-03-14T08:54:26;11.00;99.90
4826;DHT22;2427;50.934;6.776;2023-03-14T08:56:52;10.70;1.00
4826;DHT22;2427;50.934;6.776;2023-03-14T08:59:18;10.40;1.00
4826;DHT22;2427;50.934;6.776;2023-03-14T09:01:44;10.30;41.90
4826;DHT22;2427;50.934;6.776;2023-03-14T09:04:09;10.30;1.00
4826;DHT22;2427;50.934;6.776;2023-03-14T09:06:35;10.20;1.00
4826;DHT22;2427;50.934;6.776;2023-03-14T09:09:01;10.10;99.90
4826;DHT22;2427;50.934;6.776;2023-03-14T09:11:26;10.10;99.90
4826;DHT22;2427;50.934;6.776;2023-03-14T09:13:52;10.20;99.90
4826;DHT22;2427;50.934;6.776;2023-03-14T09:16:18;10.10;99.90
4826;DHT22;2427;50.934;6.776;2023-03-14T09:18:43;10.10;99.90
4826;DHT22;2427;50.934;6.776;2023-03-14T09:21:09;10.10;1.00
4826;DHT22;2427;50.934;6.776;2023-03-14T09:23:34;10.10;1.00
4826;DHT22;2427;50.934;6.776;2023-03-14T09:26:00;10.10;1.00
4826;DHT22;2427;50.934;6.776;2023-03-14T09:28:27;10.10;1.00
4826;DHT22;2427;50.934;6.776;2023-03-14T09:30:53;10.00;1.00
4826;DHT22;2427;50.934;6.776;2023-03-14T09:33:20;9.50;1.00
4826;DHT22;2427;50.934;6.776;2023-03-14T09:35:46;9.20;1.00
4826;DHT22;2427;50.934;6.776;2023-03-14T09:38:11;8.90;1.00
4826;DHT22;2427;50.934;6.776;2023-03-14T09:40:38;8.70;1.00
4826;DHT22;2427;50.934;6.776;2023-03-14T09:43:04;8.60;1.00
4826;DHT22;2427;50.934;6.776;2023-03-14T09:45:38;8.40;1.00
4826;DHT22;2427;50.934;6.776;2023-03-14T09:48:08;8.30;1.00
4826;DHT22;2427;50.934;6.776;2023-03-14T09:50:40;8.20;1.00
4826;DHT22;2427;50.934;6.776;2023-03-14T09:53:11;8.10;1.00
4826;DHT22;2427;50.934;6.776;2023-03-14T09:55:38;8.00;1.00
4826;DHT22;2427;50.934;6.776;2023-03-14T09:58:14;8.00;1.00
4826;DHT22;2427;50.934;6.776;2023-03-14T10:00:41;7.90;1.00
4826;DHT22;2427;50.934;6.776;2023-03-14T10:05:39;7.70;1.00
4826;DHT22;2427;50.934;6.776;2023-03-14T10:08:05;7.80;1.00
4826;DHT22;2427;50.934;6.776;2023-03-14T10:10:31;7.70;1.00
4826;DHT22;2427;50.934;6.776;2023-03-14T10:15:35;7.70;1.00
4826;DHT22;2427;50.934;6.776;2023-03-14T10:18:02;7.70;1.00
4826;DHT22;2427;50.934;6.776;2023-03-14T10:20:35;7.60;1.00
4826;DHT22;2427;50.934;6.776;2023-03-14T10:25:32;7.50;1.00
4826;DHT22;2427;50.934;6.776;2023-03-14T10:27:58;7.50;1.00
4826;DHT22;2427;50.934;6.776;2023-03-14T10:33:33;7.50;1.00
4826;DHT22;2427;50.934;6.776;2023-03-14T10:38:33;7.40;1.00
4826;DHT22;2427;50.934;6.776;2023-03-14T10:40:59;7.40;1.00
4826;DHT22;2427;50.934;6.776;2023-03-14T10:43:34;7.40;1.00
4826;DHT22;2427;50.934;6.776;2023-03-14T10:46:11;7.40;1.00
4826;DHT22;2427;50.934;6.776;2023-03-14T10:48:38;7.40;1.00
4826;DHT22;2427;50.934;6.776;2023-03-14T10:53:38;7.40;1.00
4826;DHT22;2427;50.934;6.776;2023-03-14T10:56:05;7.50;1.00
4826;DHT22;2427;50.934;6.776;2023-03-14T10:58:34;7.50;1.00
4826;DHT22;2427;50.934;6.776;2023-03-14T11:03:42;7.50;1.00
4826;DHT22;2427;50.934;6.776;2023-03-14T11:06:18;7.60;1.00
4826;DHT22;2427;50.934;6.776;2023-03-14T11:08:54;7.60;1.00
4826;DHT22;2427;50.934;6.776;2023-03-14T11:11:25;7.60;1.00
4826;DHT22;2427;50.934;6.776;2023-03-14T11:16:57;7.50;1.00
4826;DHT22;2427;50.934;6.776;2023-03-14T11:22:36;7.70;1.00
4826;DHT22;2427;50.934;6.776;2023-03-14T11:25:33;7.70;1.00
4826;DHT22;2427;50.934;6.776;2023-03-14T11:28:36;7.70;1.00
4826;DHT22;2427;50.934;6.776;2023-03-14T11:31:27;7.90;1.00
4826;DHT22;2427;50.934;6.776;2023-03-14T11:36:51;8.00;1.00
4826;DHT22;2427;50.934;6.776;2023-03-14T11:39:19;8.00;1.00
4826;DHT22;2427;50.934;6.776;2023-03-14T11:41:52;7.90;1.00
4826;DHT22;2427;50.934;6.776;2023-03-14T11:44:25;7.50;1.00
4826;DHT22;2427;50.934;6.776;2023-03-14T11:47:07;6.90;1.00
4826;DHT22;2427;50.934;6.776;2023-03-14T11:50:12;6.70;1.00
4826;DHT22;2427;50.934;6.776;2023-03-14T11:52:46;6.60;1.00
4826;DHT22;2427;50.934;6.776;2023-03-14T11:55:17;6.60;1.00
4826;DHT22;2427;50.934;6.776;2023-03-14T11:57:45;6.50;1.00
4826;DHT22;2427;50.934;6.776;2023-03-14T12:08:07;6.70;1.00
4826;DHT22;2427;50.934;6.776;2023-03-14T12:13:17;6.80;1.00
4826;DHT22;2427;50.934;6.776;2023-03-14T12:15:55;6.90;1.00
4826;DHT22;2427;50.934;6.776;2023-03-14T12:18:33;7.00;1.00
4826;DHT22;2427;50.934;6.776;2023-03-14T12:21:01;7.00;1.00
4826;DHT22;2427;50.934;6.776;2023-03-14T12:23:55;7.00;1.00
4826;DHT22;2427;50.934;6.776;2023-03-14T12:26:25;6.90;1.00
4826;DHT22;2427;50.934;6.776;2023-03-14T12:41:53;6.50;1.00
4826;DHT22;2427;50.934;6.776;2023-03-14T12:47:00;6.50;1.00
4826;DHT22;2427;50.934;6.776;2023-03-14T12:49:37;6.50;1.00
4826;DHT22;2427;50.934;6.776;2023-03-14T12:55:24;6.60;1.00
4826;DHT22;2427;50.934;6.776;2023-03-14T12:58:16;6.60;99.90
4826;DHT22;2427;50.934;6.776;2023-03-14T13:00:42;6.60;99.90
4826;DHT22;2427;50.934;6.776;2023-03-14T13:03:19;6.70;99.90
4826;DHT22;2427;50.934;6.776;2023-03-14T13:06:03;6.70;30.10
4826;DHT22;2427;50.934;6.776;2023-03-14T13:08:43;6.80;1.00
4826;DHT22;2427;50.934;6.776;2023-03-14T13:11:16;6.70;1.00
4826;DHT22;2427;50.934;6.776;2023-03-14T13:13:48;6.80;1.00
4826;DHT22;2427;50.934;6.776;2023-03-14T13:16:20;7.00;1.00
4826;DHT22;2427;50.934;6.776;2023-03-14T13:18:48;7.10;1.00
4826;DHT22;2427;50.934;6.776;2023-03-14T13:21:21;7.20;1.00
4826;DHT22;2427;50.934;6.776;2023-03-14T13:26:45;7.40;1.00
4826;DHT22;2427;50.934;6.776;2023-03-14T13:29:43;7.40;99.90
4826;DHT22;2427;50.934;6.776;2023-03-14T13:32:28;7.40;1.00
4826;DHT22;2427;50.934;6.776;2023-03-14T13:34:58;7.20;1.00
4826;DHT22;2427;50.934;6.776;2023-03-14T13:37:25;7.00;99.90
4826;DHT22;2427;50.934;6.776;2023-03-14T13:39:53;6.80;1.00
4826;DHT22;2427;50.934;6.776;2023-03-14T13:42:21;6.60;1.00
4826;DHT22;2427;50.934;6.776;2023-03-14T13:44:47;6.30;1.00
4826;DHT22;2427;50.934;6.776;2023-03-14T13:47:18;6.00;1.00
4826;DHT22;2427;50.934;6.776;2023-03-14T13:49:45;5.90;1.00
4826;DHT22;2427;50.934;6.776;2023-03-14T13:52:28;5.80;1.00
4826;DHT22;2427;50.934;6.776;2023-03-14T13:54:56;5.80;1.00
4826;DHT22;2427;50.934;6.776;2023-03-14T13:57:22;5.80;1.00
4826;DHT22;2427;50.934;6.776;2023-03-14T14:00:24;5.80;1.00
4826;DHT22;2427;50.934;6.776;2023-03-14T14:03:00;5.80;1.00
4826;DHT22;2427;50.934;6.776;2023-03-14T14:05:27;5.80;1.00
4826;DHT22;2427;50.934;6.776;2023-03-14T14:07:54;5.90;1.00
4826;DHT22;2427;50.934;6.776;2023-03-14T14:10:20;5.90;1.00
4826;DHT22;2427;50.934;6.776;2023-03-14T14:12:50;6.00;1.00
4826;DHT22;2427;50.934;6.776;2023-03-14T14:15:23;6.00;1.00
4826;DHT22;2427;50.934;6.776;2023-03-14T14:17:55;6.10;1.00
4826;DHT22;2427;50.934;6.776;2023-03-14T14:20:28;6.30;1.00
4826;DHT22;2427;50.934;6.776;2023-03-14T14:23:01;6.30;99.90
4826;DHT22;2427;50.934;6.776;2023-03-14T14:25:29;6.40;99.90
4826;DHT22;2427;50.934;6.776;2023-03-14T14:27:54;6.40;99.90
4826;DHT22;2427;50.934;6.776;2023-03-14T14:32:47;6.40;99.90
4826;DHT22;2427;50.934;6.776;2023-03-14T14:35:31;6.40;1.00
4826;DHT22;2427;50.934;6.776;2023-03-14T14:37:57;6.40;1.00
4826;DHT22;2427;50.934;6.776;2023-03-14T14:40:29;6.40;1.00
4826;DHT22;2427;50.934;6.776;2023-03-14T14:43:02;6.40;1.00
4826;DHT22;2427;50.934;6.776;2023-03-14T14:45:28;6.40;99.90
4826;DHT22;2427;50.934;6.776;2023-03-14T14:48:06;6.40;99.90
4826;DHT22;2427;50.934;6.776;2023-03-14T14:50:37;6.50;99.90
4826;DHT22;2427;50.934;6.776;2023-03-14T14:55:45;6.60;1.00
4826;DHT22;2427;50.934;6.776;2023-03-14T14:58:28;6.60;1.00
4826;DHT22;2427;50.934;6.776;2023-03-14T15:01:16;6.60;1.00
4826;DHT22;2427;50.934;6.776;2023-03-14T15:03:43;6.60;99.90
4826;DHT22;2427;50.934;6.776;2023-03-14T15:06:14;6.70;7.40
4826;DHT22;2427;50.934;6.776;2023-03-14T15:08:42;6.70;18.40
4826;DHT22;2427;50.934;6.776;2023-03-14T15:11:18;6.80;1.00
4826;DHT22;2427;50.934;6.776;2023-03-14T15:13:44;6.80;1.00
4826;DHT22;2427;50.934;6.776;2023-03-14T15:16:15;6.80;1.00
4826;DHT22;2427;50.934;6.776;2023-03-14T15:18:42;6.90;1.00
4826;DHT22;2427;50.934;6.776;2023-03-14T15:21:11;6.90;1.00
4826;DHT22;2427;50.934;6.776;2023-03-14T15:23:37;6.90;1.00
4826;DHT22;2427;50.934;6.776;2023-03-14T15:26:11;6.90;1.00
4826;DHT22;2427;50.934;6.776;2023-03-14T15:28:36;7.00;1.00
4826;DHT22;2427;50.934;6.776;2023-03-14T15:31:02;7.00;1.00
4826;DHT22;2427;50.934;6.776;2023-03-14T15:33:27;7.00;8.20
4826;DHT22;2427;50.934;6.776;2023-03-14T15:35:54;7.10;99.90
4826;DHT22;2427;50.934;6.776;2023-03-14T15:38:21;7.10;99.90
4826;DHT22;2427;50.934;6.776;2023-03-14T15:40:49;7.10;85.00
4826;DHT22;2427;50.934;6.776;2023-03-14T15:43:16;7.20;99.90
4826;DHT22;2427;50.934;6.776;2023-03-14T15:45:42;7.20;99.90
4826;DHT22;2427;50.934;6.776;2023-03-14T15:48:16;7.10;31.90
4826;DHT22;2427;50.934;6.776;2023-03-14T15:50:42;7.10;29.40
4826;DHT22;2427;50.934;6.776;2023-03-14T15:53:08;7.00;99.90
4826;DHT22;2427;50.934;6.776;2023-03-14T15:55:34;7.00;74.70
4826;DHT22;2427;50.934;6.776;2023-03-14T15:57:59;7.10;99.90
4826;DHT22;2427;50.934;6.776;2023-03-14T16:00:27;7.10;1.00
4826;DHT22;2427;50.934;6.776;2023-03-14T16:02:53;7.10;1.00
4826;DHT22;2427;50.934;6.776;2023-03-14T16:05:19;7.00;1.00
4826;DHT22;2427;50.934;6.776;2023-03-14T16:07:45;7.00;1.00
4826;DHT22;2427;50.934;6.776;2023-03-14T16:10:12;7.00;37.70
4826;DHT22;2427;50.934;6.776;2023-03-14T16:12:38;7.00;33.00
4826;DHT22;2427;50.934;6.776;2023-03-14T16:15:04;7.00;1.00
4826;DHT22;2427;50.934;6.776;2023-03-14T16:17:31;7.00;18.00
4826;DHT22;2427;50.934;6.776;2023-03-14T16:19:57;7.00;1.00
4826;DHT22;2427;50.934;6.776;2023-03-14T16:22:22;7.00;1.00
4826;DHT22;2427;50.934;6.776;2023-03-14T16:24:48;7.00;99.90
4826;DHT22;2427;50.934;6.776;2023-03-14T16:27:14;7.00;99.90
4826;DHT22;2427;50.934;6.776;2023-03-14T16:29:41;7.00;1.00
4826;DHT22;2427;50.934;6.776;2023-03-14T16:32:07;6.90;99.90
4826;DHT22;2427;50.934;6.776;2023-03-14T16:34:32;6.90;34.60
4826;DHT22;2427;50.934;6.776;2023-03-14T16:36:58;6.90;1.00
4826;DHT22;2427;50.934;6.776;2023-03-14T16:39:23;6.90;1.00
4826;DHT22;2427;50.934;6.776;2023-03-14T16:41:49;6.90;1.00
4826;DHT22;2427;50.934;6.776;2023-03-14T16:44:14;6.90;1.00
4826;DHT22;2427;50.934;6.776;2023-03-14T16:46:40;6.80;99.90
4826;DHT22;2427;50.934;6.776;2023-03-14T16:49:06;6.80;99.90
4826;DHT22;2427;50.934;6.776;2023-03-14T16:51:31;6.80;99.90
4826;DHT22;2427;50.934;6.776;2023-03-14T16:53:57;6.90;99.90
4826;DHT22;2427;50.934;6.776;2023-03-14T16:56:23;6.80;99.90
4826;DHT22;2427;50.934;6.776;2023-03-14T16:58:49;6.80;99.90
4826;DHT22;2427;50.934;6.776;2023-03-14T17:01:16;6.80;99.90
4826;DHT22;2427;50.934;6.776;2023-03-14T17:03:44;6.80;99.90
4826;DHT22;2427;50.934;6.776;2023-03-14T17:06:18;6.80;99.90
4826;DHT22;2427;50.934;6.776;2023-03-14T17:08:49;6.70;99.90
4826;DHT22;2427;50.934;6.776;2023-03-14T17:11:15;6.70;99.90
4826;DHT22;2427;50.934;6.776;2023-03-14T17:13:41;6.70;99.90
4826;DHT22;2427;50.934;6.776;2023-03-14T17:16:07;6.60;99.90
4826;DHT22;2427;50.934;6.776;2023-03-14T17:18:34;6.60;99.90
4826;DHT22;2427;50.934;6.776;2023-03-14T17:21:01;6.60;99.90
4826;DHT22;2427;50.934;6.776;2023-03-14T17:23:28;6.60;99.90
4826;DHT22;2427;50.934;6.776;2023-03-14T17:25:54;6.50;99.90
4826;DHT22;2427;50.934;6.776;2023-03-14T17:28:21;6.50;99.90
4826;DHT22;2427;50.934;6.776;2023-03-14T17:30:48;6.50;99.90
4826;DHT22;2427;50.934;6.776;2023-03-14T17:33:14;6.40;99.90
4826;DHT22;2427;50.934;6.776;2023-03-14T17:35:42;6.40;99.90
4826;DHT22;2427;50.934;6.776;2023-03-14T17:38:08;6.40;99.90
4826;DHT22;2427;50.934;6.776;2023-03-14T17:40:34;6.40;99.90
4826;DHT22;2427;50.934;6.776;2023-03-14T17:43:00;6.40;99.90
4826;DHT22;2427;50.934;6.776;2023-03-14T17:45:25;6.40;99.90
4826;DHT22;2427;50.934;6.776;2023-03-14T17:47:51;6.30;99.90